sensor_id;sensor_type;location;lat;lon;timestamp;pressure;altitude;pressure_sealevel;temperature
69186;BMP280;56298;49.246;9.410;2023-02-23T00:00:52;99117.06;;;8.71
69186;BMP280;56298;49.246;9.410;2023-02-23T00:03:17;99106.91;;;8.72
69186;BMP280;56298;49.246;9.410;2023-02-23T00:05:42;99108.28;;;8.78
69186;BMP280;56298;49.246;9.410;2023-02-23T00:08:08;99110.44;;;9.01
69186;BMP280;56298;49.246;9.410;2023-02-23T00:10:35;99110.13;;;9.02
69186;BMP280;56298;49.246;9.410;2023-02-23T00:13:00;99112.31;;;9.13
69186;BMP280;56298;49.246;9.410;2023-02-23T00:15:26;99119.91;;;9.03
69186;BMP280;56298;49.246;9.410;2023-02-23T00:17:56;99110.81;;;8.99
69186;BMP280;56298;49.246;9.410;2023-02-23T00:20:23;99107.81;;;9.04
69186;BMP280;56298;49.246;9.410;2023-02-23T00:22:56;99113.69;;;8.90
69186;BMP280;56298;49.246;9.410;2023-02-23T00:25:22;99109.19;;;8.98
69186;BMP280;56298;49.246;9.410;2023-02-23T00:27:48;99110.34;;;8.97
69186;BMP280;56298;49.246;9.410;2023-02-23T00:30:15;99116.91;;;8.80
69186;BMP280;56298;49.246;9.410;2023-02-23T00:32:42;99109.75;;;8.75
69186;BMP280;56298;49.246;9.410;2023-02-23T00:35:08;99109.53;;;8.81
69186;BMP280;56298;49.246;9.410;2023-02-23T00:37:36;99111.75;;;8.91
69186;BMP280;56298;49.246;9.410;2023-02-23T00:40:02;99098.94;;;8.67
69186;BMP280;56298;49.246;9.410;2023-02-23T00:42:31;99102.66;;;8.87
69186;BMP280;56298;49.246;9.410;2023-02-23T00:44:57;99102.16;;;8.97
69186;BMP280;56298;49.246;9.410;2023-02-23T00:47:22;99096.75;;;8.85
69186;BMP280;56298;49.246;9.410;2023-02-23T00:49:47;99098.44;;;8.89
69186;BMP280;56298;49.246;9.410;2023-02-23T00:52:12;99099.56;;;8.88
69186;BMP280;56298;49.246;9.410;2023-02-23T00:54:39;99095.44;;;8.95
69186;BMP280;56298;49.246;9.410;2023-02-23T00:57:04;99093.94;;;8.97
69186;BMP280;56298;49.246;9.410;2023-02-23T00:59:29;99093.03;;;8.93
69186;BMP280;56298;49.246;9.410;2023-02-23T01:01:54;99095.34;;;8.91
69186;BMP280;56298;49.246;9.410;2023-02-23T01:04:20;99091.59;;;8.83
69186;BMP280;56298;49.246;9.410;2023-02-23T01:06:47;99097.56;;;8.73
69186;BMP280;56298;49.246;9.410;2023-02-23T01:09:15;99096.75;;;8.72
69186;BMP280;56298;49.246;9.410;2023-02-23T01:11:45;99102.81;;;8.66
69186;BMP280;56298;49.246;9.410;2023-02-23T01:14:11;99104.53;;;8.70
69186;BMP280;56298;49.246;9.410;2023-02-23T01:16:36;99102.00;;;8.65
69186;BMP280;56298;49.246;9.410;2023-02-23T01:19:03;99098.94;;;8.67
69186;BMP280;56298;49.246;9.410;2023-02-23T01:21:31;99102.81;;;8.66
69186;BMP280;56298;49.246;9.410;2023-02-23T01:23:57;99095.97;;;8.72
69186;BMP280;56298;49.246;9.410;2023-02-23T01:26:28;99093.34;;;8.75
69186;BMP280;56298;49.246;9.410;2023-02-23T01:28:57;99094.25;;;8.80
69186;BMP280;56298;49.246;9.410;2023-02-23T01:31:23;99094.94;;;8.76
69186;BMP280;56298;49.246;9.410;2023-02-23T01:33:56;99092.97;;;8.89
69186;BMP280;56298;49.246;9.410;2023-02-23T01:36:22;99088.97;;;8.87
69186;BMP280;56298;49.246;9.410;2023-02-23T01:38:48;99095.03;;;8.80
69186;BMP280;56298;49.246;9.410;2023-02-23T01:41:14;99090.97;;;8.74
69186;BMP280;56298;49.246;9.410;2023-02-23T01:46:43;99078.06;;;8.74
69186;BMP280;56298;49.246;9.410;2023-02-23T01:49:15;99086.03;;;8.80
69186;BMP280;56298;49.246;9.410;2023-02-23T01:51:48;99084.84;;;8.65
69186;BMP280;56298;49.246;9.410;2023-02-23T01:54:19;99077.78;;;8.63
69186;BMP280;56298;49.246;9.410;2023-02-23T01:56:47;99081.06;;;8.69
69186;BMP280;56298;49.246;9.410;2023-02-23T01:59:26;99082.81;;;8.49
69186;BMP280;56298;49.246;9.410;2023-02-23T02:01:53;99078.59;;;8.52
69186;BMP280;56298;49.246;9.410;2023-02-23T02:04:18;99079.00;;;8.38
69186;BMP280;56298;49.246;9.410;2023-02-23T02:06:47;99086.59;;;8.44
69186;BMP280;56298;49.246;9.410;2023-02-23T02:09:15;99090.25;;;8.48
69186;BMP280;56298;49.246;9.410;2023-02-23T02:11:41;99079.31;;;8.48
69186;BMP280;56298;49.246;9.410;2023-02-23T02:17:10;99078.31;;;8.28
69186;BMP280;56298;49.246;9.410;2023-02-23T02:20:01;99076.47;;;8.32
69186;BMP280;56298;49.246;9.410;2023-02-23T02:28:07;99075.34;;;8.33
69186;BMP280;56298;49.246;9.410;2023-02-23T02:41:48;99078.31;;;8.28
69186;BMP280;56298;49.246;9.410;2023-02-23T02:44:24;99073.75;;;8.32
69186;BMP280;56298;49.246;9.410;2023-02-23T02:46:58;99071.50;;;8.22
69186;BMP280;56298;49.246;9.410;2023-02-23T02:49:29;99072.63;;;8.08
69186;BMP280;56298;49.246;9.410;2023-02-23T02:54:50;99069.47;;;8.06
69186;BMP280;56298;49.246;9.410;2023-02-23T02:57:19;99077.75;;;7.98
69186;BMP280;56298;49.246;9.410;2023-02-23T02:59:47;99071.50;;;7.97
69186;BMP280;56298;49.246;9.410;2023-02-23T03:02:33;99069.16;;;7.96
69186;BMP280;56298;49.246;9.410;2023-02-23T03:05:21;99068.81;;;7.85
69186;BMP280;56298;49.246;9.410;2023-02-23T03:08:30;99067.88;;;7.80
69186;BMP280;56298;49.246;9.410;2023-02-23T03:11:17;99066.81;;;7.85
69186;BMP280;56298;49.246;9.410;2023-02-23T03:23:18;99071.06;;;7.70
69186;BMP280;56298;49.246;9.410;2023-02-23T03:26:14;99070.72;;;7.72
69186;BMP280;56298;49.246;9.410;2023-02-23T03:29:06;99080.06;;;7.83
69186;BMP280;56298;49.246;9.410;2023-02-23T03:32:06;99069.34;;;7.90
69186;BMP280;56298;49.246;9.410;2023-02-23T03:35:06;99074.03;;;7.90
69186;BMP280;56298;49.246;9.410;2023-02-23T03:37:59;99078.69;;;8.02
69186;BMP280;56298;49.246;9.410;2023-02-23T03:40:46;99078.81;;;7.93
69186;BMP280;56298;49.246;9.410;2023-02-23T03:43:34;99076.41;;;7.91
69186;BMP280;56298;49.246;9.410;2023-02-23T03:46:20;99070.72;;;7.84
69186;BMP280;56298;49.246;9.410;2023-02-23T03:49:08;99069.94;;;7.96
69186;BMP280;56298;49.246;9.410;2023-02-23T03:51:57;99073.22;;;7.89
69186;BMP280;56298;49.246;9.410;2023-02-23T03:55:00;99082.53;;;7.76
69186;BMP280;56298;49.246;9.410;2023-02-23T03:57:47;99073.22;;;7.77
69186;BMP280;56298;49.246;9.410;2023-02-23T04:00:36;99068.41;;;7.74
69186;BMP280;56298;49.246;9.410;2023-02-23T04:03:22;99069.44;;;7.69
69186;BMP280;56298;49.246;9.410;2023-02-23T04:06:10;99070.38;;;7.86
69186;BMP280;56298;49.246;9.410;2023-02-23T04:08:57;99064.09;;;7.98
69186;BMP280;56298;49.246;9.410;2023-02-23T04:11:56;99071.16;;;7.86
69186;BMP280;56298;49.246;9.410;2023-02-23T04:17:15;99073.00;;;7.82
69186;BMP280;56298;49.246;9.410;2023-02-23T04:19:52;99072.75;;;7.75
69186;BMP280;56298;49.246;9.410;2023-02-23T04:22:17;99076.97;;;7.72
69186;BMP280;56298;49.246;9.410;2023-02-23T04:24:43;99079.69;;;7.72
69186;BMP280;56298;49.246;9.410;2023-02-23T04:27:10;99079.47;;;7.65
69186;BMP280;56298;49.246;9.410;2023-02-23T04:29:35;99081.25;;;7.73
69186;BMP280;56298;49.246;9.410;2023-02-23T04:32:00;99075.13;;;7.64
69186;BMP280;56298;49.246;9.410;2023-02-23T04:34:25;99079.09;;;7.54
69186;BMP280;56298;49.246;9.410;2023-02-23T04:36:51;99080.91;;;7.62
69186;BMP280;56298;49.246;9.410;2023-02-23T04:39:16;99076.53;;;7.83
69186;BMP280;56298;49.246;9.410;2023-02-23T04:41:41;99079.59;;;7.93
69186;BMP280;56298;49.246;9.410;2023-02-23T04:44:07;99074.13;;;7.93
69186;BMP280;56298;49.246;9.410;2023-02-23T04:46:32;99075.28;;;8.05
69186;BMP280;56298;49.246;9.410;2023-02-23T04:48:57;99072.56;;;8.05
69186;BMP280;56298;49.246;9.410;2023-02-23T04:51:23;99080.75;;;8.05
69186;BMP280;56298;49.246;9.410;2023-02-23T04:53:48;99074.22;;;7.97
69186;BMP280;56298;49.246;9.410;2023-02-23T04:56:13;99075.50;;;7.87
69186;BMP280;56298;49.246;9.410;2023-02-23T04:58:39;99078.78;;;7.80
69186;BMP280;56298;49.246;9.410;2023-02-23T05:01:08;99075.50;;;7.87
69186;BMP280;56298;49.246;9.410;2023-02-23T05:03:34;99080.38;;;7.69
69186;BMP280;56298;49.246;9.410;2023-02-23T05:06:00;99080.72;;;7.68
69186;BMP280;56298;49.246;9.410;2023-02-23T05:08:25;99080.50;;;7.73
69186;BMP280;56298;49.246;9.410;2023-02-23T05:10:50;99075.06;;;7.73
69186;BMP280;56298;49.246;9.410;2023-02-23T05:13:16;99072.75;;;7.87
69186;BMP280;56298;49.246;9.410;2023-02-23T05:15:41;99077.06;;;7.88
69186;BMP280;56298;49.246;9.410;2023-02-23T05:18:06;99082.19;;;8.02
69186;BMP280;56298;49.246;9.410;2023-02-23T05:20:32;99079.00;;;8.00
69186;BMP280;56298;49.246;9.410;2023-02-23T05:22:57;99073.91;;;8.11
69186;BMP280;56298;49.246;9.410;2023-02-23T05:25:23;99078.88;;;8.21
69186;BMP280;56298;49.246;9.410;2023-02-23T05:27:48;99073.91;;;8.24
69186;BMP280;56298;49.246;9.410;2023-02-23T05:30:14;99079.69;;;8.22
69186;BMP280;56298;49.246;9.410;2023-02-23T05:32:39;99070.13;;;8.16
69186;BMP280;56298;49.246;9.410;2023-02-23T05:35:05;99077.22;;;8.17
69186;BMP280;56298;49.246;9.410;2023-02-23T05:37:30;99072.16;;;8.19
69186;BMP280;56298;49.246;9.410;2023-02-23T05:39:55;99075.72;;;8.19
69186;BMP280;56298;49.246;9.410;2023-02-23T05:42:20;99077.97;;;8.30
69186;BMP280;56298;49.246;9.410;2023-02-23T05:44:45;99078.44;;;8.19
69186;BMP280;56298;49.246;9.410;2023-02-23T05:47:11;99082.19;;;8.02
69186;BMP280;56298;49.246;9.410;2023-02-23T05:49:36;99079.25;;;8.07
69186;BMP280;56298;49.246;9.410;2023-02-23T05:52:02;99079.47;;;8.02
69186;BMP280;56298;49.246;9.410;2023-02-23T05:54:27;99075.50;;;7.87
69186;BMP280;56298;49.246;9.410;2023-02-23T05:56:53;99080.50;;;7.98
69186;BMP280;56298;49.246;9.410;2023-02-23T05:59:18;99075.72;;;7.94
69186;BMP280;56298;49.246;9.410;2023-02-23T06:01:43;99082.88;;;7.99
69186;BMP280;56298;49.246;9.410;2023-02-23T06:04:09;99078.78;;;7.80
69186;BMP280;56298;49.246;9.410;2023-02-23T06:06:34;99083.13;;;7.82
69186;BMP280;56298;49.246;9.410;2023-02-23T06:09:01;99072.09;;;8.03
69186;BMP280;56298;49.246;9.410;2023-02-23T06:11:27;99072.09;;;8.15
69186;BMP280;56298;49.246;9.410;2023-02-23T06:13:52;99081.16;;;8.19
69186;BMP280;56298;49.246;9.410;2023-02-23T06:16:18;99081.47;;;8.30
69186;BMP280;56298;49.246;9.410;2023-02-23T06:18:43;99082.19;;;8.27
69186;BMP280;56298;49.246;9.410;2023-02-23T06:21:09;99083.44;;;8.30
69186;BMP280;56298;49.246;9.410;2023-02-23T06:23:37;99093.91;;;8.28
69186;BMP280;56298;49.246;9.410;2023-02-23T06:26:03;99086.59;;;8.32
69186;BMP280;56298;49.246;9.410;2023-02-23T06:28:28;99083.69;;;8.25
69186;BMP280;56298;49.246;9.410;2023-02-23T06:30:54;99089.63;;;8.14
69186;BMP280;56298;49.246;9.410;2023-02-23T06:33:20;99088.47;;;8.03
69186;BMP280;56298;49.246;9.410;2023-02-23T06:35:45;99090.88;;;8.04
69186;BMP280;56298;49.246;9.410;2023-02-23T06:38:10;99092.91;;;8.07
69186;BMP280;56298;49.246;9.410;2023-02-23T06:40:37;99102.69;;;7.96
69186;BMP280;56298;49.246;9.410;2023-02-23T06:43:02;99100.31;;;8.07
69186;BMP280;56298;49.246;9.410;2023-02-23T06:45:28;99105.78;;;8.07
69186;BMP280;56298;49.246;9.410;2023-02-23T06:47:53;99112.69;;;8.04
69186;BMP280;56298;49.246;9.410;2023-02-23T06:50:19;99113.03;;;8.03
69186;BMP280;56298;49.246;9.410;2023-02-23T06:52:44;99118.25;;;8.20
69186;BMP280;56298;49.246;9.410;2023-02-23T06:55:10;99116.31;;;8.21
69186;BMP280;56298;49.246;9.410;2023-02-23T06:57:37;99115.44;;;8.29
69186;BMP280;56298;49.246;9.410;2023-02-23T07:00:03;99112.44;;;8.34
69186;BMP280;56298;49.246;9.410;2023-02-23T07:02:28;99119.75;;;8.18
69186;BMP280;56298;49.246;9.410;2023-02-23T07:04:54;99123.16;;;8.15
69186;BMP280;56298;49.246;9.410;2023-02-23T07:07:19;99118.72;;;8.23
69186;BMP280;56298;49.246;9.410;2023-02-23T07:09:44;99126.47;;;8.20
69186;BMP280;56298;49.246;9.410;2023-02-23T07:12:10;99132.25;;;8.19
69186;BMP280;56298;49.246;9.410;2023-02-23T07:14:35;99122.38;;;8.14
69186;BMP280;56298;49.246;9.410;2023-02-23T07:17:02;99123.50;;;8.26
69186;BMP280;56298;49.246;9.410;2023-02-23T07:19:28;99128.84;;;8.22
69186;BMP280;56298;49.246;9.410;2023-02-23T07:21:53;99129.78;;;8.26
69186;BMP280;56298;49.246;9.410;2023-02-23T07:24:18;99130.91;;;8.25
69186;BMP280;56298;49.246;9.410;2023-02-23T07:26:44;99132.84;;;8.12
69186;BMP280;56298;49.246;9.410;2023-02-23T07:29:11;99138.28;;;8.12
69186;BMP280;56298;49.246;9.410;2023-02-23T07:31:37;99127.25;;;8.21
69186;BMP280;56298;49.246;9.410;2023-02-23T07:34:03;99131.34;;;8.40
69186;BMP280;56298;49.246;9.410;2023-02-23T07:36:28;99138.41;;;8.41
69186;BMP280;56298;49.246;9.410;2023-02-23T07:38:53;99135.44;;;8.46
69186;BMP280;56298;49.246;9.410;2023-02-23T07:41:19;99134.84;;;8.53
69186;BMP280;56298;49.246;9.410;2023-02-23T07:43:45;99140.69;;;8.51
69186;BMP280;56298;49.246;9.410;2023-02-23T07:46:10;99135.06;;;8.60
69186;BMP280;56298;49.246;9.410;2023-02-23T07:48:35;99144.97;;;8.65
69186;BMP280;56298;49.246;9.410;2023-02-23T07:51:07;99141.31;;;8.73
69186;BMP280;56298;49.246;9.410;2023-02-23T07:53:32;99145.53;;;8.70
69186;BMP280;56298;49.246;9.410;2023-02-23T07:55:59;99137.53;;;8.77
69186;BMP280;56298;49.246;9.410;2023-02-23T07:58:25;99142.56;;;8.75
69186;BMP280;56298;49.246;9.410;2023-02-23T08:00:50;99141.84;;;8.79
69186;BMP280;56298;49.246;9.410;2023-02-23T08:03:16;99150.13;;;8.95
69186;BMP280;56298;49.246;9.410;2023-02-23T08:05:41;99144.09;;;9.01
69186;BMP280;56298;49.246;9.410;2023-02-23T08:08:09;99148.00;;;9.16
69186;BMP280;56298;49.246;9.410;2023-02-23T08:10:35;99147.88;;;9.13
69186;BMP280;56298;49.246;9.410;2023-02-23T08:13:00;99140.75;;;9.08
69186;BMP280;56298;49.246;9.410;2023-02-23T08:15:25;99149.19;;;9.31
69186;BMP280;56298;49.246;9.410;2023-02-23T08:17:50;99152.56;;;9.41
69186;BMP280;56298;49.246;9.410;2023-02-23T08:20:16;99154.19;;;9.58
69186;BMP280;56298;49.246;9.410;2023-02-23T08:22:42;99151.72;;;9.69
69186;BMP280;56298;49.246;9.410;2023-02-23T08:25:07;99153.06;;;9.75
69186;BMP280;56298;49.246;9.410;2023-02-23T08:27:34;99154.91;;;9.87
69186;BMP280;56298;49.246;9.410;2023-02-23T08:29:59;99154.66;;;9.92
69186;BMP280;56298;49.246;9.410;2023-02-23T08:32:28;99157.38;;;9.92
69186;BMP280;56298;49.246;9.410;2023-02-23T08:34:54;99162.94;;;9.96
69186;BMP280;56298;49.246;9.410;2023-02-23T08:37:22;99159.31;;;9.92
69186;BMP280;56298;49.246;9.410;2023-02-23T08:39:47;99152.59;;;10.05
69186;BMP280;56298;49.246;9.410;2023-02-23T08:42:12;99158.28;;;9.96
69186;BMP280;56298;49.246;9.410;2023-02-23T08:44:38;99164.53;;;9.97
69186;BMP280;56298;49.246;9.410;2023-02-23T08:47:03;99158.53;;;10.07
69186;BMP280;56298;49.246;9.410;2023-02-23T08:49:29;99164.78;;;10.24
69186;BMP280;56298;49.246;9.410;2023-02-23T08:51:56;99159.75;;;10.26
69186;BMP280;56298;49.246;9.410;2023-02-23T08:54:21;99163.00;;;10.32
69186;BMP280;56298;49.246;9.410;2023-02-23T08:56:46;99162.00;;;10.40
69186;BMP280;56298;49.246;9.410;2023-02-23T08:59:12;99163.38;;;10.66
69186;BMP280;56298;49.246;9.410;2023-02-23T09:01:38;99154.34;;;11.05
69186;BMP280;56298;49.246;9.410;2023-02-23T09:04:04;99160.63;;;11.25
69186;BMP280;56298;49.246;9.410;2023-02-23T09:06:30;99165.19;;;11.40
69186;BMP280;56298;49.246;9.410;2023-02-23T09:08:56;99168.22;;;11.35
69186;BMP280;56298;49.246;9.410;2023-02-23T09:11:22;99170.88;;;11.51
69186;BMP280;56298;49.246;9.410;2023-02-23T09:13:47;99170.59;;;11.57
69186;BMP280;56298;49.246;9.410;2023-02-23T09:16:13;99167.72;;;11.73
69186;BMP280;56298;49.246;9.410;2023-02-23T09:18:38;99169.16;;;11.90
69186;BMP280;56298;49.246;9.410;2023-02-23T09:21:05;99174.22;;;11.88
69186;BMP280;56298;49.246;9.410;2023-02-23T09:23:32;99174.91;;;11.81
69186;BMP280;56298;49.246;9.410;2023-02-23T09:26:01;99171.53;;;11.91
69186;BMP280;56298;49.246;9.410;2023-02-23T09:28:26;99168.44;;;11.93
69186;BMP280;56298;49.246;9.410;2023-02-23T09:30:55;99173.69;;;12.02
69186;BMP280;56298;49.246;9.410;2023-02-23T09:33:20;99172.25;;;12.11
69186;BMP280;56298;49.246;9.410;2023-02-23T09:35:45;99165.50;;;12.05
69186;BMP280;56298;49.246;9.410;2023-02-23T09:38:11;99164.31;;;12.06
69186;BMP280;56298;49.246;9.410;2023-02-23T09:40:48;99178.94;;;11.87
69186;BMP280;56298;49.246;9.410;2023-02-23T09:43:37;99180.13;;;11.90
69186;BMP280;56298;49.246;9.410;2023-02-23T09:46:10;99173.38;;;11.83
69186;BMP280;56298;49.246;9.410;2023-02-23T09:48:47;99169.69;;;11.72
69186;BMP280;56298;49.246;9.410;2023-02-23T09:51:16;99177.34;;;11.86
69186;BMP280;56298;49.246;9.410;2023-02-23T09:53:58;99174.78;;;11.97
69186;BMP280;56298;49.246;9.410;2023-02-23T09:56:38;99184.13;;;12.19
69186;BMP280;56298;49.246;9.410;2023-02-23T09:59:05;99185.41;;;12.25
69186;BMP280;56298;49.246;9.410;2023-02-23T10:02:04;99181.50;;;12.26
69186;BMP280;56298;49.246;9.410;2023-02-23T10:04:32;99178.41;;;12.28
69186;BMP280;56298;49.246;9.410;2023-02-23T10:07:11;99179.72;;;12.38
69186;BMP280;56298;49.246;9.410;2023-02-23T10:21:06;99171.97;;;12.20
69186;BMP280;56298;49.246;9.410;2023-02-23T10:23:40;99176.22;;;12.14
69186;BMP280;56298;49.246;9.410;2023-02-23T10:26:12;99176.44;;;12.29
69186;BMP280;56298;49.246;9.410;2023-02-23T10:28:39;99175.72;;;12.32
69186;BMP280;56298;49.246;9.410;2023-02-23T10:33:41;99183.00;;;12.51
69186;BMP280;56298;49.246;9.410;2023-02-23T10:36:16;99186.25;;;12.57
69186;BMP280;56298;49.246;9.410;2023-02-23T10:38:43;99180.91;;;12.67
69186;BMP280;56298;49.246;9.410;2023-02-23T10:41:09;99187.81;;;12.88
69186;BMP280;56298;49.246;9.410;2023-02-23T10:43:35;99192.06;;;13.16
69186;BMP280;56298;49.246;9.410;2023-02-23T10:46:00;99186.72;;;13.31
69186;BMP280;56298;49.246;9.410;2023-02-23T10:48:33;99183.06;;;13.61
69186;BMP280;56298;49.246;9.410;2023-02-23T10:51:00;99188.09;;;14.00
69186;BMP280;56298;49.246;9.410;2023-02-23T10:53:35;99189.06;;;14.26
69186;BMP280;56298;49.246;9.410;2023-02-23T10:56:12;99190.41;;;14.54
69186;BMP280;56298;49.246;9.410;2023-02-23T10:58:59;99186.56;;;14.80
69186;BMP280;56298;49.246;9.410;2023-02-23T11:01:33;99179.81;;;14.71
69186;BMP280;56298;49.246;9.410;2023-02-23T11:04:20;99179.81;;;14.71
69186;BMP280;56298;49.246;9.410;2023-02-23T11:06:47;99179.28;;;14.43
69186;BMP280;56298;49.246;9.410;2023-02-23T11:09:33;99174.78;;;14.13
69186;BMP280;56298;49.246;9.410;2023-02-23T11:12:00;99177.03;;;13.93
69186;BMP280;56298;49.246;9.410;2023-02-23T11:14:27;99176.50;;;13.76
69186;BMP280;56298;49.246;9.410;2023-02-23T11:16:57;99171.31;;;13.64
69186;BMP280;56298;49.246;9.410;2023-02-23T11:19:34;99169.28;;;13.61
69186;BMP280;56298;49.246;9.410;2023-02-23T11:22:02;99163.63;;;13.43
69186;BMP280;56298;49.246;9.410;2023-02-23T11:24:32;99165.00;;;13.67
69186;BMP280;56298;49.246;9.410;2023-02-23T11:27:00;99161.63;;;13.92
69186;BMP280;56298;49.246;9.410;2023-02-23T11:29:40;99154.25;;;14.03
69186;BMP280;56298;49.246;9.410;2023-02-23T11:32:07;99158.00;;;14.44
69186;BMP280;56298;49.246;9.410;2023-02-23T11:34:35;99148.66;;;14.66
69186;BMP280;56298;49.246;9.410;2023-02-23T11:37:25;99146.31;;;14.79
69186;BMP280;56298;49.246;9.410;2023-02-23T11:39:57;99155.09;;;15.14
69186;BMP280;56298;49.246;9.410;2023-02-23T11:42:28;99146.78;;;15.07
69186;BMP280;56298;49.246;9.410;2023-02-23T11:45:04;99147.19;;;15.20
69186;BMP280;56298;49.246;9.410;2023-02-23T11:47:38;99149.53;;;14.89
69186;BMP280;56298;49.246;9.410;2023-02-23T11:50:05;99143.22;;;14.85
69186;BMP280;56298;49.246;9.410;2023-02-23T11:52:31;99138.84;;;14.73
69186;BMP280;56298;49.246;9.410;2023-02-23T11:54:58;99138.84;;;14.84
69186;BMP280;56298;49.246;9.410;2023-02-23T11:57:32;99132.91;;;14.74
69186;BMP280;56298;49.246;9.410;2023-02-23T12:00:03;99136.88;;;14.80
69186;BMP280;56298;49.246;9.410;2023-02-23T12:02:52;99137.31;;;14.90
69186;BMP280;56298;49.246;9.410;2023-02-23T12:05:27;99127.47;;;15.18
69186;BMP280;56298;49.246;9.410;2023-02-23T12:08:05;99117.97;;;15.22
69186;BMP280;56298;49.246;9.410;2023-02-23T12:10:45;99129.03;;;15.62
69186;BMP280;56298;49.246;9.410;2023-02-23T12:13:27;99121.09;;;15.93
69186;BMP280;56298;49.246;9.410;2023-02-23T12:16:06;99125.84;;;15.86
69186;BMP280;56298;49.246;9.410;2023-02-23T12:27:08;99110.09;;;15.28
69186;BMP280;56298;49.246;9.410;2023-02-23T12:32:18;99108.84;;;14.71
69186;BMP280;56298;49.246;9.410;2023-02-23T12:35:11;99108.38;;;14.47
69186;BMP280;56298;49.246;9.410;2023-02-23T12:37:44;99110.22;;;14.14
69186;BMP280;56298;49.246;9.410;2023-02-23T12:40:29;99107.44;;;14.18
69186;BMP280;56298;49.246;9.410;2023-02-23T12:43:21;99101.63;;;14.34
69186;BMP280;56298;49.246;9.410;2023-02-23T12:46:13;99104.44;;;14.45
69186;BMP280;56298;49.246;9.410;2023-02-23T12:49:01;99099.78;;;14.74
69186;BMP280;56298;49.246;9.410;2023-02-23T12:51:41;99102.97;;;14.94
69186;BMP280;56298;49.246;9.410;2023-02-23T12:54:10;99103.78;;;15.09
69186;BMP280;56298;49.246;9.410;2023-02-23T12:59:49;99100.25;;;15.38
69186;BMP280;56298;49.246;9.410;2023-02-23T13:02:41;99093.53;;;15.35
69186;BMP280;56298;49.246;9.410;2023-02-23T13:13:59;99087.56;;;15.62
69186;BMP280;56298;49.246;9.410;2023-02-23T13:16:41;99088.00;;;15.53
69186;BMP280;56298;49.246;9.410;2023-02-23T13:19:37;99083.28;;;15.43
69186;BMP280;56298;49.246;9.410;2023-02-23T13:25:02;99086.81;;;15.40
69186;BMP280;56298;49.246;9.410;2023-02-23T13:27:39;99084.44;;;15.57
69186;BMP280;56298;49.246;9.410;2023-02-23T13:30:10;99077.72;;;15.72
69186;BMP280;56298;49.246;9.410;2023-02-23T13:32:36;99076.91;;;15.75
69186;BMP280;56298;49.246;9.410;2023-02-23T13:35:06;99080.81;;;15.85
69186;BMP280;56298;49.246;9.410;2023-02-23T13:37:39;99074.53;;;15.74
69186;BMP280;56298;49.246;9.410;2023-02-23T13:40:15;99083.59;;;15.81
69186;BMP280;56298;49.246;9.410;2023-02-23T13:48:38;99075.50;;;16.31
69186;BMP280;56298;49.246;9.410;2023-02-23T13:56:45;99065.22;;;16.31
69186;BMP280;56298;49.246;9.410;2023-02-23T13:59:20;99073.63;;;16.13
69186;BMP280;56298;49.246;9.410;2023-02-23T14:01:49;99070.34;;;16.36
69186;BMP280;56298;49.246;9.410;2023-02-23T14:09:27;99063.56;;;16.45
69186;BMP280;56298;49.246;9.410;2023-02-23T14:22:29;99066.28;;;15.56
69186;BMP280;56298;49.246;9.410;2023-02-23T14:28:03;99063.16;;;15.14
69186;BMP280;56298;49.246;9.410;2023-02-23T14:30:47;99061.97;;;15.22
69186;BMP280;56298;49.246;9.410;2023-02-23T14:33:37;99058.78;;;14.87
69186;BMP280;56298;49.246;9.410;2023-02-23T14:44:35;99054.84;;;14.88
69186;BMP280;56298;49.246;9.410;2023-02-23T14:47:22;99055.66;;;14.96
69186;BMP280;56298;49.246;9.410;2023-02-23T14:49:50;99052.88;;;14.96
69186;BMP280;56298;49.246;9.410;2023-02-23T14:55:31;99051.31;;;15.09
69186;BMP280;56298;49.246;9.410;2023-02-23T14:58:00;99052.88;;;15.21
69186;BMP280;56298;49.246;9.410;2023-02-23T15:00:31;99049.75;;;15.27
69186;BMP280;56298;49.246;9.410;2023-02-23T15:03:05;99059.97;;;15.11
69186;BMP280;56298;49.246;9.410;2023-02-23T15:05:36;99056.44;;;15.25
69186;BMP280;56298;49.246;9.410;2023-02-23T15:08:06;99060.41;;;15.24
69186;BMP280;56298;49.246;9.410;2023-02-23T15:10:37;99060.38;;;15.10
69186;BMP280;56298;49.246;9.410;2023-02-23T15:13:10;99059.97;;;15.04
69186;BMP280;56298;49.246;9.410;2023-02-23T15:15:39;99066.72;;;15.03
69186;BMP280;56298;49.246;9.410;2023-02-23T15:21:30;99068.63;;;14.92
69186;BMP280;56298;49.246;9.410;2023-02-23T15:24:10;99065.09;;;14.91
69186;BMP280;56298;49.246;9.410;2023-02-23T15:26:38;99061.91;;;14.75
69186;BMP280;56298;49.246;9.410;2023-02-23T15:31:38;99060.72;;;14.68
69186;BMP280;56298;49.246;9.410;2023-02-23T15:34:15;99065.06;;;14.70
69186;BMP280;56298;49.246;9.410;2023-02-23T15:37:01;99064.66;;;14.64
69186;BMP280;56298;49.246;9.410;2023-02-23T15:39:44;99067.03;;;14.69
69186;BMP280;56298;49.246;9.410;2023-02-23T15:42:13;99061.09;;;14.52
69186;BMP280;56298;49.246;9.410;2023-02-23T15:44:40;99064.63;;;14.49
69186;BMP280;56298;49.246;9.410;2023-02-23T15:47:12;99068.91;;;14.36
69186;BMP280;56298;49.246;9.410;2023-02-23T15:49:41;99063.75;;;14.23
69186;BMP280;56298;49.246;9.410;2023-02-23T15:52:27;99066.56;;;14.38
69186;BMP280;56298;49.246;9.410;2023-02-23T15:55:06;99069.31;;;14.38
69186;BMP280;56298;49.246;9.410;2023-02-23T15:57:43;99059.00;;;14.24
69186;BMP280;56298;49.246;9.410;2023-02-23T16:00:19;99072.44;;;14.22
69186;BMP280;56298;49.246;9.410;2023-02-23T16:02:51;99071.59;;;14.18
69186;BMP280;56298;49.246;9.410;2023-02-23T16:05:19;99071.59;;;14.18
69186;BMP280;56298;49.246;9.410;2023-02-23T16:07:45;99074.38;;;14.14
69186;BMP280;56298;49.246;9.410;2023-02-23T16:10:22;99074.31;;;14.07
69186;BMP280;56298;49.246;9.410;2023-02-23T16:12:51;99067.25;;;14.09
69186;BMP280;56298;49.246;9.410;2023-02-23T16:15:28;99069.97;;;14.02
69186;BMP280;56298;49.246;9.410;2023-02-23T16:17:59;99074.66;;;13.94
69186;BMP280;56298;49.246;9.410;2023-02-23T16:20:30;99068.28;;;13.87
69186;BMP280;56298;49.246;9.410;2023-02-23T16:22:58;99073.03;;;13.86
69186;BMP280;56298;49.246;9.410;2023-02-23T16:25:26;99068.66;;;13.81
69186;BMP280;56298;49.246;9.410;2023-02-23T16:28:06;99067.84;;;13.77
69186;BMP280;56298;49.246;9.410;2023-02-23T16:30:39;99069.78;;;13.73
69186;BMP280;56298;49.246;9.410;2023-02-23T16:35:43;99071.69;;;13.62
69186;BMP280;56298;49.246;9.410;2023-02-23T16:38:24;99072.44;;;13.59
69186;BMP280;56298;49.246;9.410;2023-02-23T16:40:50;99066.13;;;13.58
69186;BMP280;56298;49.246;9.410;2023-02-23T16:43:15;99065.25;;;13.43
69186;BMP280;56298;49.246;9.410;2023-02-23T16:45:41;99070.41;;;13.45